To NAV CANADA Home Page Login to a new session Search on AWWS site Feedback and Comments Disclaimer Vers la page française équivalente Tips FAQ What's new on the site To the Forecasts and Observations / NOTAM section To "File a Flight Plan" website Publications and other links Update of the User's profile FIC Telephone Numbers My Weather Data Folder Route Weather Data Regional Weather Data Local Weather Data To the Forecasts and Observations / NOTAM section
Request Generated 10/17/2017 at 01:44:19 UTC . Weather information available at that time is displayed.

METAR/TAF

DEASE LAKE/BC    (show WxCam)

METAR CYDL 170100Z AUTO 19009KT 9SM CLR 01/M00 A2942 RMK SLP987=
METAR CYDL 170000Z AUTO 21006KT 9SM SCT004 01/01 A2942 RMK SLP985=
SPECI CYDL 162354Z AUTO 21006KT 9SM SCT004 01/01 A2942 RMK SLP987=
SPECI CYDL 162326Z AUTO 20003KT 150V230 6SM BR OVC004 01/00 A2942 RMK
SLP988=
SPECI CYDL 162323Z AUTO 20004KT 150V220 3SM BR OVC004 01/00 A2942 RMK
SLP987=
SPECI CYDL 162322Z AUTO 19004KT 150V220 2 1/2SM BR OVC004 01/00 A2942
RMK SLP987=
SPECI CYDL 162315Z AUTO 20003KT 2 1/2SM -RA BR BKN004 OVC010 00/00
A2942 RMK SLP988=
SPECI CYDL 162314Z AUTO 19003KT 160V220 3SM -RA BR BKN004 OVC013
00/00 A2942 RMK SLP988=
SPECI CYDL 162312Z AUTO 21003KT 160V220 4SM -RASN BKN004 OVC013 00/00
A2942 RMK SLP988=
SPECI CYDL 162308Z AUTO 19002KT 8SM -RASN BKN004 OVC013 00/00 A2942
RMK SLP988=
SPECI CYDL 162307Z AUTO 19002KT 6SM -SN BKN004 OVC013 00/00 A2942 RMK
SLP988=
SPECI CYDL 162303Z AUTO 18003KT 3SM -SN BKN004 OVC013 00/00 A2942 RMK
SLP988=
METAR CYDL 162300Z AUTO 18003KT 2 1/4SM -SN BKN004 OVC013 00/00 A2942
RMK SLP987=

TAF AMD CYDL 170044Z 1700/1702 VRB03KT P6SM SCT004 BKN050 TEMPO
1700/1702 5SM -RASN BR BKN004 BKN012 OVC050
RMK FCST BASED ON AUTO OBS. NXT FCST WILL BE ISSUED AT 171545Z=
Your time UTC time
Weather data provided by Environment Canada and NAV CANADA